Kaleen Mc Allister — WDB3847 — position and weather

sailwx.info

Track history (hours):
 
Tides and Currents Weather Stations Pressure Air Temp Water Temp Dewpoint Dewpoint Depression Visibility Wind Speed Wind Dir Waves Ship Positions

Kaleen Mc Allister

Owner: MC ALLISTER TOWING & TRANSPORTATION INC, NEW YORK, NY. More information available from US FCC via Universal Licensing System and Coast Guard Vessel Documentation Center.

Last reported at 2017-Nov-18 11:31 UTC. Time now 2017-Nov-18 11:46 UTC.
Position N 39°50' W 075°23'.

Length 31 m; draft 4 m.

Type: Tug. MMSI: 366891960.

Date/timePositionNaut miles runAvg speedWind from/ knotsBaromVisibWave heightAir tempDewpointWater temp
2017-Nov-18 11:31N 39°50' W 075°23'0 0.0
2017-Nov-18 11:00N 39°50' W 075°23'0 0.0
2017-Nov-18 10:30N 39°50' W 075°23'0 0.0
2017-Nov-18 10:01N 39°50' W 075°23'0 0.0
2017-Nov-18 09:31N 39°50' W 075°23'0 0.0
2017-Nov-18 09:00N 39°50' W 075°23'0 0.0
2017-Nov-18 08:31N 39°50' W 075°23'1 1.1
2017-Nov-18 08:01N 39°49' W 075°23'1 3.0
2017-Nov-18 07:30N 39°48' W 075°25'0 0.3
2017-Nov-18 07:00N 39°48' W 075°25'1 2.0
2017-Nov-18 06:31N 39°49' W 075°24'3 6.1
2017-Nov-18 06:00N 39°51' W 075°21'4 8.0
2017-Nov-18 05:30N 39°51' W 075°16'4 8.0
2017-Nov-18 05:01N 39°54' W 075°12'0 0.1
2017-Nov-18 04:30N 39°54' W 075°12'0 0.0
2017-Nov-18 04:01N 39°54' W 075°12'0 0.0
2017-Nov-18 03:30N 39°54' W 075°12'0 0.0
2017-Nov-18 03:00N 39°54' W 075°12'0 0.0
2017-Nov-18 02:30N 39°54' W 075°12'0 0.0
2017-Nov-18 02:01N 39°54' W 075°12'0 0.0
2017-Nov-18 01:31N 39°54' W 075°12'0 0.0
2017-Nov-18 01:01N 39°54' W 075°12'0 0.0
2017-Nov-18 00:31N 39°54' W 075°12'0 0.0
2017-Nov-18 00:00N 39°54' W 075°12'0 0.0
2017-Nov-17 23:30N 39°54' W 075°12'0 0.0
2017-Nov-17 23:00N 39°54' W 075°12'0 0.0
2017-Nov-17 22:30N 39°54' W 075°12'0 0.0
2017-Nov-17 22:00N 39°54' W 075°12'0 0.0
2017-Nov-17 21:30N 39°54' W 075°12'0 0.0
2017-Nov-17 21:00N 39°54' W 075°12'0 0.0
2017-Nov-17 20:30N 39°54' W 075°12'0 0.0
2017-Nov-17 20:00N 39°54' W 075°12'0 0.0
2017-Nov-17 19:31N 39°54' W 075°12'0 0.0
2017-Nov-17 19:00N 39°54' W 075°12'0 0.0
2017-Nov-17 18:31N 39°54' W 075°12'0 0.0
2017-Nov-17 18:01N 39°54' W 075°12'0 0.0
2017-Nov-17 17:31N 39°54' W 075°12'0 0.0
2017-Nov-17 17:01N 39°54' W 075°12'0 0.0
2017-Nov-17 16:31N 39°54' W 075°12'0 0.0
2017-Nov-17 16:00N 39°54' W 075°12'0 0.0
2017-Nov-17 15:31N 39°54' W 075°12'0 0.0
2017-Nov-17 15:00N 39°54' W 075°12'0 0.0
2017-Nov-17 14:30N 39°54' W 075°12'0 0.0
2017-Nov-17 14:00N 39°54' W 075°12'0 0.0
2017-Nov-17 13:30N 39°54' W 075°12'0 0.0
2017-Nov-17 13:00N 39°54' W 075°12'0 0.0
2017-Nov-17 12:30N 39°54' W 075°12'0 0.0
2017-Nov-17 12:00N 39°54' W 075°12'0 0.0
2017-Nov-17 11:30N 39°54' W 075°12'0 0.0
2017-Nov-17 11:00N 39°54' W 075°12'0 0.0
2017-Nov-17 10:30N 39°54' W 075°12'0 0.0
2017-Nov-17 10:00N 39°54' W 075°12'0 0.0
2017-Nov-17 09:30N 39°54' W 075°12'0 0.0
2017-Nov-17 09:00N 39°54' W 075°12'0 0.0
2017-Nov-17 08:30N 39°54' W 075°12'0 0.0
2017-Nov-17 08:00N 39°54' W 075°12'0 0.0
2017-Nov-17 07:30N 39°54' W 075°12'0 0.0
2017-Nov-17 07:00N 39°54' W 075°12'0 0.0
2017-Nov-17 06:30N 39°54' W 075°12'0 0.0
2017-Nov-17 06:00N 39°54' W 075°12'0 0.0
2017-Nov-17 05:30N 39°54' W 075°12'0 0.0
2017-Nov-17 05:00N 39°54' W 075°12'0 0.0
2017-Nov-17 04:30N 39°54' W 075°12'0 0.0
2017-Nov-17 04:00N 39°54' W 075°12'0 0.0
2017-Nov-17 03:30N 39°54' W 075°12'0 0.0
2017-Nov-17 03:00N 39°54' W 075°12'3 6.5
2017-Nov-17 02:30N 39°51' W 075°14'4 8.8
2017-Nov-17 02:00N 39°51' W 075°20'2 3.3
2017-Nov-17 01:30N 39°50' W 075°22'0 0.0
2017-Nov-17 01:00N 39°50' W 075°22'0 0.0
2017-Nov-17 00:30N 39°50' W 075°22'0 0.0
2017-Nov-17 00:00N 39°50' W 075°22'2 4.4
2017-Nov-16 23:30N 39°49' W 075°24'4 7.9
2017-Nov-16 23:00N 39°46' W 075°28'4 7.3
2017-Nov-16 22:30N 39°43' W 075°30'3 7.0
2017-Nov-16 22:00N 39°40' W 075°32'3 6.7
2017-Nov-16 21:30N 39°37' W 075°35'3 6.9
2017-Nov-16 21:00N 39°34' W 075°33'5 9.9
2017-Nov-16 20:30N 39°33' W 075°40'5 9.7
2017-Nov-16 20:00N 39°32' W 075°46'4 8.4
2017-Nov-16 19:30N 39°32' W 075°51'4 8.9
2017-Nov-16 19:00N 39°30' W 075°56'4 8.7
2017-Nov-16 18:30N 39°26' W 076°00'4 8.4
2017-Nov-16 18:00N 39°24' W 076°04'4 8.3
2017-Nov-16 17:30N 39°22' W 076°09'4 8.0
2017-Nov-16 17:00N 39°19' W 076°13'4 7.9
2017-Nov-16 16:27N 39°15' W 076°14'8 7.2
2017-Nov-16 15:18N 39°10' W 076°23'3 9.5
2017-Nov-16 15:00N 39°11' W 076°26'5 9.4
2017-Nov-16 14:30N 39°13' W 076°31'4 8.1
2017-Nov-16 14:00N 39°16' W 076°35'1 2.4
2017-Nov-16 13:30N 39°17' W 076°36'0 0.2
2017-Nov-16 13:00N 39°16' W 076°36'3 6.6
2017-Nov-16 12:30N 39°14' W 076°33'611.3
2017-Nov-16 12:00N 39°11' W 076°27'611.6
2017-Nov-16 11:30N 39°09' W 076°20'511.0
2017-Nov-16 11:00N 39°13' W 076°15'610.7
2017-Nov-16 10:29N 39°18' W 076°13'510.9
2017-Nov-16 10:00N 39°22' W 076°08'611.4
2017-Nov-16 09:30N 39°25' W 076°02'611.5
2017-Nov-16 09:00N 39°29' W 075°57'611.4
2017-Nov-16 08:30N 39°32' W 075°50'611.1
2017-Nov-16 08:00N 39°33' W 075°43'612.2
2017-Nov-16 07:30N 39°33' W 075°36'510.3
2017-Nov-16 07:01N 39°38' W 075°34'713.6
2017-Nov-16 06:30N 39°45' W 075°30'713.2
2017-Nov-16 06:01N 39°49' W 075°24'611.5
2017-Nov-16 05:30N 39°51' W 075°17'5 9.2
2017-Nov-16 05:01N 39°54' W 075°12'0 0.6
2017-Nov-16 04:30N 39°53' W 075°12'2 3.4
2017-Nov-16 04:01N 39°52' W 075°13'0 0.0
2017-Nov-16 03:30N 39°52' W 075°13'0 0.0
2017-Nov-16 03:00N 39°52' W 075°13'0 0.2
2017-Nov-16 02:31N 39°52' W 075°13'1 2.7
2017-Nov-16 02:01N 39°51' W 075°14'2 3.9
2017-Nov-16 01:30N 39°52' W 075°12'1 2.8
2017-Nov-16 01:00N 39°54' W 075°12'0 0.0
2017-Nov-16 00:30N 39°54' W 075°12'0 0.0
2017-Nov-16 00:00N 39°54' W 075°12'0 0.0
2017-Nov-15 23:30N 39°54' W 075°12'0 0.0
2017-Nov-15 23:00N 39°54' W 075°12'0 0.0
2017-Nov-15 22:30N 39°54' W 075°12'0 0.0
2017-Nov-15 22:01N 39°54' W 075°12'0 0.0
2017-Nov-15 21:30N 39°54' W 075°12'0 0.0
2017-Nov-15 21:01N 39°54' W 075°12'0 0.0
2017-Nov-15 20:31N 39°54' W 075°12'0 0.0
2017-Nov-15 20:00N 39°54' W 075°12'0 0.0
2017-Nov-15 19:30N 39°54' W 075°12'0 0.0
2017-Nov-15 19:00N 39°54' W 075°12'0 0.0
2017-Nov-15 18:30N 39°54' W 075°12'0 0.0
2017-Nov-15 18:00N 39°54' W 075°12'0 0.0
2017-Nov-15 17:30N 39°54' W 075°12'0 0.7
2017-Nov-15 17:01N 39°53' W 075°12'3 6.2
2017-Nov-15 16:31N 39°54' W 075°08'4 7.9
2017-Nov-15 16:00N 39°58' W 075°07'4 8.4
2017-Nov-15 15:31N 40°01' W 075°02'4 7.7
2017-Nov-15 15:00N 40°03' W 074°58'4 7.5
2017-Nov-15 14:30N 40°05' W 074°54'4 7.7
2017-Nov-15 14:00N 40°07' W 074°50'3 6.7
2017-Nov-15 13:30N 40°08' W 074°46'1 1.0
2017-Nov-15 12:59N 40°08' W 074°45'1 1.7
2017-Nov-15 12:30N 40°08' W 074°46'3 6.5
2017-Nov-15 12:00N 40°07' W 074°50'4 8.4
2017-Nov-15 11:30N 40°04' W 074°54'5 9.5
2017-Nov-15 11:00N 40°02' W 074°60'510.1
2017-Nov-15 10:30N 39°59' W 075°05'5 9.0
2017-Nov-15 10:00N 39°55' W 075°08'3 6.5
2017-Nov-15 09:30N 39°54' W 075°12'0 0.1
2017-Nov-15 09:00N 39°54' W 075°12'0 0.0
2017-Nov-15 08:30N 39°54' W 075°12'0 0.0
2017-Nov-15 08:01N 39°54' W 075°12'0 0.0
2017-Nov-15 07:31N 39°54' W 075°12'0 0.0
2017-Nov-15 07:01N 39°54' W 075°12'0 0.0
2017-Nov-15 06:30N 39°54' W 075°12'0 0.0
2017-Nov-15 06:01N 39°54' W 075°12'0 0.0
2017-Nov-15 05:31N 39°54' W 075°12'0 0.0
2017-Nov-15 05:00N 39°54' W 075°12'0 0.0
2017-Nov-15 04:30N 39°54' W 075°12'0 0.0
2017-Nov-15 04:01N 39°54' W 075°12'0 0.0
2017-Nov-15 03:30N 39°54' W 075°12'0 0.0
2017-Nov-15 03:01N 39°54' W 075°12'0 0.0
2017-Nov-15 02:30N 39°54' W 075°12'0 0.0
2017-Nov-15 02:01N 39°54' W 075°12'0 0.0
2017-Nov-15 01:31N 39°54' W 075°12'0 0.0
2017-Nov-15 01:01N 39°54' W 075°12'0 0.0
2017-Nov-15 00:30N 39°54' W 075°12'0 0.0
2017-Nov-15 00:00N 39°54' W 075°12'0 0.0
2017-Nov-14 23:30N 39°54' W 075°12'0 0.0
2017-Nov-14 23:01N 39°54' W 075°12'0 0.0
2017-Nov-14 22:30N 39°54' W 075°12'0 0.0
2017-Nov-14 22:01N 39°54' W 075°12'0 0.0
2017-Nov-14 21:31N 39°54' W 075°12'0 0.0
2017-Nov-14 21:00N 39°54' W 075°12'0 0.0
2017-Nov-14 20:30N 39°54' W 075°12'0 0.0
2017-Nov-14 20:00N 39°54' W 075°12'0 0.0
2017-Nov-14 19:30N 39°54' W 075°12'0 0.0
2017-Nov-14 19:00N 39°54' W 075°12'0 0.0
2017-Nov-14 18:30N 39°54' W 075°12'0 0.0
2017-Nov-14 18:01N 39°54' W 075°12'0 0.0
2017-Nov-14 17:31N 39°54' W 075°12'0 0.0
2017-Nov-14 17:01N 39°54' W 075°12'0 0.0
2017-Nov-14 16:30N 39°54' W 075°12'0 0.0
2017-Nov-14 16:00N 39°54' W 075°12'0 0.0
2017-Nov-14 15:31N 39°54' W 075°12'0 0.0
2017-Nov-14 15:01N 39°54' W 075°12'0 0.0
2017-Nov-14 14:31N 39°54' W 075°12'0 0.0
2017-Nov-14 14:00N 39°54' W 075°12'0 0.1
2017-Nov-14 13:30N 39°54' W 075°12'3 5.9
2017-Nov-14 13:00N 39°54' W 075°08'4 7.3
2017-Nov-14 12:30N 39°58' W 075°08'1 2.2
2017-Nov-14 12:00N 39°58' W 075°07'1 1.5
2017-Nov-14 11:30N 39°59' W 075°06'0 0.0
2017-Nov-14 11:00N 39°59' W 075°06'1 1.4
2017-Nov-14 10:30N 39°58' W 075°06'3 6.3
2017-Nov-14 10:00N 39°55' W 075°08'1 2.1
2017-Nov-14 09:30N 39°54' W 075°08'2 4.2
2017-Nov-14 09:00N 39°53' W 075°10'2 3.8
2017-Nov-14 08:30N 39°54' W 075°08'2 4.7
2017-Nov-14 08:00N 39°53' W 075°10'2 3.1
2017-Nov-14 07:30N 39°54' W 075°12'0 0.0
2017-Nov-14 07:00N 39°54' W 075°12'0 0.0
2017-Nov-14 06:30N 39°54' W 075°12'0 0.0
2017-Nov-14 06:00N 39°54' W 075°12'0 0.0
2017-Nov-14 05:30N 39°54' W 075°12'0 0.0
2017-Nov-14 05:00N 39°54' W 075°12'0 0.0
2017-Nov-14 04:30N 39°54' W 075°12'0 0.0
2017-Nov-14 04:00N 39°54' W 075°12'0 0.0
2017-Nov-14 03:30N 39°54' W 075°12'0 0.0
2017-Nov-14 03:00N 39°54' W 075°12'0 0.0
2017-Nov-14 02:30N 39°54' W 075°12'0 0.0
2017-Nov-14 02:00N 39°54' W 075°12'3 5.8
2017-Nov-14 01:30N 39°51' W 075°14'1 2.2
2017-Nov-14 01:01N 39°51' W 075°15'612.4
2017-Nov-14 00:30N 39°49' W 075°23'2 3.3
2017-Nov-14 00:01N 39°48' W 075°25'0 0.0
2017-Nov-13 23:30N 39°48' W 075°25'0 0.9
2017-Nov-13 23:01N 39°49' W 075°25'4 7.6
2017-Nov-13 22:31N 39°51' W 075°20'4 8.0
2017-Nov-13 22:01N 39°51' W 075°15'4 0.2
2017-Nov-13 02:00N 39°54' W 075°12'0 0.0
2017-Nov-13 01:30N 39°54' W 075°12'0 0.0
2017-Nov-13 01:01N 39°54' W 075°12'0 0.0
2017-Nov-13 00:30N 39°54' W 075°12'0 0.0
2017-Nov-13 00:00N 39°54' W 075°12'0 0.0
2017-Nov-12 23:31N 39°54' W 075°12'0 0.0
2017-Nov-12 23:01N 39°54' W 075°12'0 0.0
2017-Nov-12 22:31N 39°54' W 075°12'0 0.0
2017-Nov-12 22:01N 39°54' W 075°12'0 0.0
2017-Nov-12 21:30N 39°54' W 075°12'0 0.0
2017-Nov-12 21:00N 39°54' W 075°12'0 0.0
2017-Nov-12 20:30N 39°54' W 075°12'0 0.0
2017-Nov-12 20:01N 39°54' W 075°12'0 0.0
2017-Nov-12 19:30N 39°54' W 075°12'0 0.0
2017-Nov-12 19:00N 39°54' W 075°12'0 0.0
2017-Nov-12 18:30N 39°54' W 075°12'0 0.0
2017-Nov-12 18:00N 39°54' W 075°12'0 0.0
2017-Nov-12 17:31N 39°54' W 075°12'0 0.0
2017-Nov-12 17:01N 39°54' W 075°12'0 0.0
2017-Nov-12 16:31N 39°54' W 075°12'0 0.0
2017-Nov-12 16:00N 39°54' W 075°12'0 0.0
2017-Nov-12 15:31N 39°54' W 075°12'0 0.0
2017-Nov-12 15:01N 39°54' W 075°12'0 0.0
2017-Nov-12 14:30N 39°54' W 075°12'0 0.0
2017-Nov-12 14:00N 39°54' W 075°12'0 0.0
2017-Nov-12 13:30N 39°54' W 075°12'0 0.0
2017-Nov-12 13:00N 39°54' W 075°12'0 0.7
2017-Nov-12 12:30N 39°54' W 075°12'0 0.5
2017-Nov-12 12:00N 39°54' W 075°12'1 1.4
2017-Nov-12 11:31N 39°53' W 075°12'1 1.7
2017-Nov-12 11:00N 39°54' W 075°12'0 0.7
2017-Nov-12 10:30N 39°54' W 075°12'0 0.0
2017-Nov-12 10:00N 39°54' W 075°12'1 1.6
2017-Nov-12 09:30N 39°53' W 075°12'4 8.6
2017-Nov-12 09:00N 39°51' W 075°17'4 8.6
2017-Nov-12 08:31N 39°50' W 075°22'3 5.5
2017-Nov-12 08:01N 39°48' W 075°25'0 0.0
2017-Nov-12 07:30N 39°48' W 075°25'0 0.0
2017-Nov-12 07:00N 39°48' W 075°25'0 0.3
2017-Nov-12 06:31N 39°48' W 075°25'1 2.9
2017-Nov-12 06:01N 39°48' W 075°27'1 1.9
2017-Nov-12 05:31N 39°48' W 075°26'2 4.5
2017-Nov-12 05:01N 39°49' W 075°23'4 7.2
2017-Nov-12 04:31N 39°51' W 075°19'4 7.1
2017-Nov-12 04:01N 39°51' W 075°15'3 6.5
2017-Nov-12 03:31N 39°54' W 075°12'0 0.1
2017-Nov-12 03:00N 39°54' W 075°12'0 0.0
2017-Nov-12 02:30N 39°54' W 075°12'0 0.0
2017-Nov-12 02:01N 39°54' W 075°12'0 0.0
2017-Nov-12 01:31N 39°54' W 075°12'0 0.0
2017-Nov-12 01:00N 39°54' W 075°12'0 0.0
2017-Nov-12 00:31N 39°54' W 075°12'0 0.0
2017-Nov-12 00:00N 39°54' W 075°12'0 0.0
2017-Nov-11 23:30N 39°54' W 075°12'0 0.0
2017-Nov-11 23:01N 39°54' W 075°12'0 0.0
2017-Nov-11 22:30N 39°54' W 075°12'0 0.0
2017-Nov-11 22:00N 39°54' W 075°12'0 0.0
2017-Nov-11 21:31N 39°54' W 075°12'0 0.0
2017-Nov-11 21:01N 39°54' W 075°12'0 0.0
2017-Nov-11 20:31N 39°54' W 075°12'0 0.0
2017-Nov-11 20:00N 39°54' W 075°12'0 0.0
2017-Nov-11 19:31N 39°54' W 075°12'0 0.0
2017-Nov-11 19:00N 39°54' W 075°12'0 0.6
2017-Nov-11 18:30N 39°54' W 075°12'0 0.4
2017-Nov-11 18:00N 39°53' W 075°12'4 7.9
2017-Nov-11 17:31N 39°51' W 075°16'4 8.9
2017-Nov-11 17:00N 39°50' W 075°21'4 8.2
2017-Nov-11 16:30N 39°48' W 075°26'4 8.1
2017-Nov-11 16:01N 39°45' W 075°29'4 8.4
2017-Nov-11 15:30N 39°41' W 075°31'4 8.1
2017-Nov-11 15:01N 39°38' W 075°35'4 7.5
2017-Nov-11 14:31N 39°34' W 075°33'2 4.1
2017-Nov-11 14:01N 39°35' W 075°36'0 0.9
2017-Nov-11 13:31N 39°35' W 075°35'0 0.8
2017-Nov-11 13:01N 39°35' W 075°36'0 0.0
2017-Nov-11 12:30N 39°35' W 075°36'0 0.0
2017-Nov-11 12:00N 39°35' W 075°36'0 0.0
2017-Nov-11 11:31N 39°35' W 075°36'0 0.0
2017-Nov-11 11:01N 39°35' W 075°36'0 0.0
2017-Nov-11 10:31N 39°35' W 075°36'1 1.8
2017-Nov-11 10:01N 39°35' W 075°35'0 1.0
2017-Nov-11 09:30N 39°34' W 075°34'1 2.5
2017-Nov-11 09:00N 39°35' W 075°36'0 0.2
2017-Nov-11 08:31N 39°35' W 075°36'0 0.1
2017-Nov-11 08:00N 39°35' W 075°36'3 5.2
2017-Nov-11 07:31N 39°34' W 075°33'4 8.6
2017-Nov-11 07:01N 39°33' W 075°39'611.1
2017-Nov-11 06:30N 39°32' W 075°46'510.0
2017-Nov-11 06:00N 39°32' W 075°52'510.4
2017-Nov-11 05:31N 39°29' W 075°57'5 9.9
2017-Nov-11 05:01N 39°25' W 076°02'5 9.3
2017-Nov-11 04:30N 39°23' W 076°07'5 9.6
2017-Nov-11 04:00N 39°20' W 076°12'13 7.7
2017-Nov-11 02:19N 39°10' W 076°23'3 8.7
2017-Nov-11 02:00N 39°11' W 076°26'4 8.3
2017-Nov-11 01:30N 39°12' W 076°31'3 5.5
2017-Nov-11 01:00N 39°13' W 076°34'0 0.0
2017-Nov-11 00:30N 39°13' W 076°34'0 0.0
2017-Nov-11 00:00N 39°13' W 076°34'0 0.0
2017-Nov-10 23:30N 39°13' W 076°34'0 0.0
2017-Nov-10 23:00N 39°13' W 076°34'0 0.0
2017-Nov-10 22:30N 39°13' W 076°34'0 0.0
2017-Nov-10 22:00N 39°13' W 076°34'0 0.0
2017-Nov-10 21:30N 39°13' W 076°34'0 0.0
2017-Nov-10 21:00N 39°13' W 076°34'0 0.0
2017-Nov-10 20:30N 39°13' W 076°34'0 0.0
2017-Nov-10 20:01N 39°13' W 076°34'0 0.0
2017-Nov-10 19:30N 39°13' W 076°34'0 0.0
2017-Nov-10 19:00N 39°13' W 076°34'0 0.0
2017-Nov-10 18:30N 39°13' W 076°34'0 0.0
2017-Nov-10 18:01N 39°13' W 076°34'0 0.0
2017-Nov-10 17:30N 39°13' W 076°34'0 0.0
2017-Nov-10 17:00N 39°13' W 076°34'0 0.0
2017-Nov-10 16:30N 39°13' W 076°34'0 0.0
2017-Nov-10 16:00N 39°13' W 076°34'0 0.0
2017-Nov-10 15:30N 39°13' W 076°34'0 0.0
2017-Nov-10 15:00N 39°13' W 076°34'0 0.0
2017-Nov-10 14:25N 39°13' W 076°34'0 0.0
2017-Nov-10 13:57N 39°13' W 076°34'0 0.0
2017-Nov-10 13:27N 39°13' W 076°34'0 0.0
2017-Nov-10 13:00N 39°13' W 076°34'0 0.0
2017-Nov-10 12:31N 39°13' W 076°34'0 0.0
2017-Nov-10 12:01N 39°13' W 076°34'0 0.0
2017-Nov-10 11:30N 39°13' W 076°34'0 0.0
2017-Nov-10 11:00N 39°13' W 076°34'0 0.0
2017-Nov-10 10:31N 39°13' W 076°34'0 0.0
2017-Nov-10 10:01N 39°13' W 076°34'0 0.2
2017-Nov-10 09:30N 39°13' W 076°35'1 1.4
2017-Nov-10 09:01N 39°13' W 076°34'4 7.5
2017-Nov-10 08:25N 39°11' W 076°29'3 6.9
2017-Nov-10 07:59N 39°10' W 076°25'3 6.9
2017-Nov-10 07:30N 39°09' W 076°21'3 6.1
2017-Nov-10 07:00N 39°11' W 076°18'4 7.3
2017-Nov-10 06:31N 39°13' W 076°15'3 6.8
2017-Nov-10 06:00N 39°17' W 076°14'3 6.2
2017-Nov-10 05:31N 39°20' W 076°12'3 6.0
2017-Nov-10 05:01N 39°21' W 076°09'3 5.9
2017-Nov-10 04:30N 39°23' W 076°06'3 6.0
2017-Nov-10 04:01N 39°24' W 076°02'3 6.0
2017-Nov-10 03:31N 39°27' W 075°60'3 5.8
2017-Nov-10 03:01N 39°29' W 075°57'3 5.9
2017-Nov-10 02:31N 39°31' W 075°54'3 6.0
2017-Nov-10 02:01N 39°32' W 075°51'3 6.5
2017-Nov-10 01:31N 39°32' W 075°47'4 8.0
2017-Nov-10 01:01N 39°33' W 075°41'4 8.4
2017-Nov-10 00:30N 39°33' W 075°36'3 5.3
2017-Nov-10 00:01N 39°35' W 075°34'4 7.5
2017-Nov-09 23:30N 39°39' W 075°33'4 8.0
2017-Nov-09 23:01N 39°42' W 075°31'3 6.2
2017-Nov-09 22:31N 39°45' W 075°29'4 7.7
2017-Nov-09 22:01N 39°48' W 075°26'3 6.3
2017-Nov-09 21:30N 39°50' W 075°22'1 1.0
2017-Nov-09 21:01N 39°50' W 075°22'4 7.7
2017-Nov-09 20:30N 39°51' W 075°17'4 7.3
2017-Nov-09 20:00N 39°52' W 075°13'1 2.9
2017-Nov-09 19:30N 39°54' W 075°12'0 0.0
2017-Nov-09 19:00N 39°54' W 075°12'0 0.0
2017-Nov-09 18:30N 39°54' W 075°12'0 0.0
2017-Nov-09 18:00N 39°54' W 075°12'0 0.0
2017-Nov-09 17:30N 39°54' W 075°12'0 0.0
2017-Nov-09 17:00N 39°54' W 075°12'0 0.0
2017-Nov-09 16:30N 39°54' W 075°12'0 0.0
2017-Nov-09 16:00N 39°54' W 075°12'0 0.0
2017-Nov-09 15:30N 39°54' W 075°12'0 0.0
2017-Nov-09 15:00N 39°54' W 075°12'0 0.0
2017-Nov-09 14:30N 39°54' W 075°12'0 0.0
2017-Nov-09 14:00N 39°54' W 075°12'2 4.0
2017-Nov-09 13:31N 39°52' W 075°13'4 7.8
2017-Nov-09 13:00N 39°51' W 075°18'4 8.3
2017-Nov-09 12:30N 39°49' W 075°23'4 8.0
2017-Nov-09 12:01N 39°47' W 075°27'4 7.6
2017-Nov-09 11:31N 39°44' W 075°30'4 7.7
2017-Nov-09 11:00N 39°40' W 075°32'4 9.0
2017-Nov-09 10:31N 39°36' W 075°34'2 3.1
2017-Nov-09 10:01N 39°35' W 075°35'0 0.9
2017-Nov-09 09:31N 39°35' W 075°36'1 2.9
2017-Nov-09 09:01N 39°34' W 075°34'2 3.0
2017-Nov-09 08:31N 39°33' W 075°33'1 2.6
2017-Nov-09 08:01N 39°35' W 075°33'4 8.2
2017-Nov-09 07:31N 39°39' W 075°34'4 8.3
2017-Nov-09 07:01N 39°42' W 075°31'4 8.6
2017-Nov-09 06:31N 39°46' W 075°28'4 8.6
2017-Nov-09 06:01N 39°49' W 075°24'4 8.7
2017-Nov-09 05:30N 39°51' W 075°19'4 8.9
2017-Nov-09 05:01N 39°52' W 075°14'2 4.7
2017-Nov-09 04:30N 39°54' W 075°12'0 0.0
2017-Nov-09 04:01N 39°54' W 075°12'0 0.0
2017-Nov-09 03:30N 39°54' W 075°12'0 0.0
2017-Nov-09 03:01N 39°54' W 075°12'0 0.0
2017-Nov-09 02:30N 39°54' W 075°12'0 0.0
2017-Nov-09 02:01N 39°54' W 075°12'1 2.7
2017-Nov-09 01:30N 39°52' W 075°12'3 5.1
2017-Nov-09 01:00N 39°51' W 075°15'0 0.0
2017-Nov-09 00:31N 39°51' W 075°15'1 2.3
2017-Nov-09 00:01N 39°52' W 075°14'4 7.0
2017-Nov-08 23:30N 39°53' W 075°09'1 2.4
2017-Nov-08 23:01N 39°54' W 075°08'1 1.2
2017-Nov-08 22:31N 39°54' W 075°08'0 0.1
2017-Nov-08 22:01N 39°54' W 075°08'1 1.4
2017-Nov-08 21:31N 39°54' W 075°09'0 0.0
2017-Nov-08 21:00N 39°54' W 075°08'0 0.0
2017-Nov-08 20:30N 39°54' W 075°09'0 0.0
2017-Nov-08 20:01N 39°54' W 075°08'0 0.0
2017-Nov-08 19:30N 39°54' W 075°08'0 0.0
2017-Nov-08 19:01N 39°54' W 075°08'0 0.3
2017-Nov-08 18:31N 39°54' W 075°08'0 0.0
2017-Nov-08 18:01N 39°54' W 075°08'2 3.9
2017-Nov-08 17:31N 39°53' W 075°11'1 2.6
2017-Nov-08 17:00N 39°54' W 075°12'0 0.0
2017-Nov-08 16:30N 39°54' W 075°12'0 0.0
2017-Nov-08 16:00N 39°54' W 075°12'0 0.0
2017-Nov-08 15:30N 39°54' W 075°12'0 0.0
2017-Nov-08 15:01N 39°54' W 075°12'0 0.0
2017-Nov-08 14:31N 39°54' W 075°12'0 0.0
2017-Nov-08 14:01N 39°54' W 075°12'0 0.0
2017-Nov-08 13:30N 39°54' W 075°12'0 0.0
2017-Nov-08 13:01N 39°54' W 075°12'0 0.0
2017-Nov-08 12:30N 39°54' W 075°12'0 0.0
2017-Nov-08 12:01N 39°54' W 075°12'  
Track history (hours):
 
Tides and Currents Weather Stations Pressure Air Temp Water Temp Dewpoint Dewpoint Depression Visibility Wind Speed Wind Dir Waves Ship Positions

Kaleen Mc Allister

Owner: MC ALLISTER TOWING & TRANSPORTATION INC, NEW YORK, NY. More information available from US FCC via Universal Licensing System and Coast Guard Vessel Documentation Center.

Last reported at 2017-Nov-18 11:31 UTC. Time now 2017-Nov-18 11:46 UTC.
Position N 39°50' W 075°23'.

Length 31 m; draft 4 m.

Type: Tug. MMSI: 366891960.

Date/timePositionNaut miles runAvg speedWind from/ knotsBaromVisibWave heightAir tempDewpointWater temp
2017-Nov-18 11:31N 39°50' W 075°23'0 0.0
2017-Nov-18 11:00N 39°50' W 075°23'0 0.0
2017-Nov-18 10:30N 39°50' W 075°23'0 0.0
2017-Nov-18 10:01N 39°50' W 075°23'0 0.0
2017-Nov-18 09:31N 39°50' W 075°23'0 0.0
2017-Nov-18 09:00N 39°50' W 075°23'0 0.0
2017-Nov-18 08:31N 39°50' W 075°23'1 1.1
2017-Nov-18 08:01N 39°49' W 075°23'1 3.0
2017-Nov-18 07:30N 39°48' W 075°25'0 0.3
2017-Nov-18 07:00N 39°48' W 075°25'1 2.0
2017-Nov-18 06:31N 39°49' W 075°24'3 6.1
2017-Nov-18 06:00N 39°51' W 075°21'4 8.0
2017-Nov-18 05:30N 39°51' W 075°16'4 8.0
2017-Nov-18 05:01N 39°54' W 075°12'0 0.1
2017-Nov-18 04:30N 39°54' W 075°12'0 0.0
2017-Nov-18 04:01N 39°54' W 075°12'0 0.0
2017-Nov-18 03:30N 39°54' W 075°12'0 0.0
2017-Nov-18 03:00N 39°54' W 075°12'0 0.0
2017-Nov-18 02:30N 39°54' W 075°12'0 0.0
2017-Nov-18 02:01N 39°54' W 075°12'0 0.0
2017-Nov-18 01:31N 39°54' W 075°12'0 0.0
2017-Nov-18 01:01N 39°54' W 075°12'0 0.0
2017-Nov-18 00:31N 39°54' W 075°12'0 0.0
2017-Nov-18 00:00N 39°54' W 075°12'0 0.0
2017-Nov-17 23:30N 39°54' W 075°12'0 0.0
2017-Nov-17 23:00N 39°54' W 075°12'0 0.0
2017-Nov-17 22:30N 39°54' W 075°12'0 0.0
2017-Nov-17 22:00N 39°54' W 075°12'0 0.0
2017-Nov-17 21:30N 39°54' W 075°12'0 0.0
2017-Nov-17 21:00N 39°54' W 075°12'0 0.0
2017-Nov-17 20:30N 39°54' W 075°12'0 0.0
2017-Nov-17 20:00N 39°54' W 075°12'0 0.0
2017-Nov-17 19:31N 39°54' W 075°12'0 0.0
2017-Nov-17 19:00N 39°54' W 075°12'0 0.0
2017-Nov-17 18:31N 39°54' W 075°12'0 0.0
2017-Nov-17 18:01N 39°54' W 075°12'0 0.0
2017-Nov-17 17:31N 39°54' W 075°12'0 0.0
2017-Nov-17 17:01N 39°54' W 075°12'0 0.0
2017-Nov-17 16:31N 39°54' W 075°12'0 0.0
2017-Nov-17 16:00N 39°54' W 075°12'0 0.0
2017-Nov-17 15:31N 39°54' W 075°12'0 0.0
2017-Nov-17 15:00N 39°54' W 075°12'0 0.0
2017-Nov-17 14:30N 39°54' W 075°12'0 0.0
2017-Nov-17 14:00N 39°54' W 075°12'0 0.0
2017-Nov-17 13:30N 39°54' W 075°12'0 0.0
2017-Nov-17 13:00N 39°54' W 075°12'0 0.0
2017-Nov-17 12:30N 39°54' W 075°12'0 0.0
2017-Nov-17 12:00N 39°54' W 075°12'0 0.0
2017-Nov-17 11:30N 39°54' W 075°12'0 0.0
2017-Nov-17 11:00N 39°54' W 075°12'0 0.0
2017-Nov-17 10:30N 39°54' W 075°12'0 0.0
2017-Nov-17 10:00N 39°54' W 075°12'0 0.0
2017-Nov-17 09:30N 39°54' W 075°12'0 0.0
2017-Nov-17 09:00N 39°54' W 075°12'0 0.0
2017-Nov-17 08:30N 39°54' W 075°12'0 0.0
2017-Nov-17 08:00N 39°54' W 075°12'0 0.0
2017-Nov-17 07:30N 39°54' W 075°12'0 0.0
2017-Nov-17 07:00N 39°54' W 075°12'0 0.0
2017-Nov-17 06:30N 39°54' W 075°12'0 0.0
2017-Nov-17 06:00N 39°54' W 075°12'0 0.0
2017-Nov-17 05:30N 39°54' W 075°12'0 0.0
2017-Nov-17 05:00N 39°54' W 075°12'0 0.0
2017-Nov-17 04:30N 39°54' W 075°12'0 0.0
2017-Nov-17 04:00N 39°54' W 075°12'0 0.0
2017-Nov-17 03:30N 39°54' W 075°12'0 0.0
2017-Nov-17 03:00N 39°54' W 075°12'3 6.5
2017-Nov-17 02:30N 39°51' W 075°14'4 8.8
2017-Nov-17 02:00N 39°51' W 075°20'2 3.3
2017-Nov-17 01:30N 39°50' W 075°22'0 0.0
2017-Nov-17 01:00N 39°50' W 075°22'0 0.0
2017-Nov-17 00:30N 39°50' W 075°22'0 0.0
2017-Nov-17 00:00N 39°50' W 075°22'2 4.4
2017-Nov-16 23:30N 39°49' W 075°24'4 7.9
2017-Nov-16 23:00N 39°46' W 075°28'4 7.3
2017-Nov-16 22:30N 39°43' W 075°30'3 7.0
2017-Nov-16 22:00N 39°40' W 075°32'3 6.7
2017-Nov-16 21:30N 39°37' W 075°35'3 6.9
2017-Nov-16 21:00N 39°34' W 075°33'5 9.9
2017-Nov-16 20:30N 39°33' W 075°40'5 9.7
2017-Nov-16 20:00N 39°32' W 075°46'4 8.4
2017-Nov-16 19:30N 39°32' W 075°51'4 8.9
2017-Nov-16 19:00N 39°30' W 075°56'4 8.7
2017-Nov-16 18:30N 39°26' W 076°00'4 8.4
2017-Nov-16 18:00N 39°24' W 076°04'4 8.3
2017-Nov-16 17:30N 39°22' W 076°09'4 8.0
2017-Nov-16 17:00N 39°19' W 076°13'4 7.9
2017-Nov-16 16:27N 39°15' W 076°14'8 7.2
2017-Nov-16 15:18N 39°10' W 076°23'3 9.5
2017-Nov-16 15:00N 39°11' W 076°26'5 9.4
2017-Nov-16 14:30N 39°13' W 076°31'4 8.1
2017-Nov-16 14:00N 39°16' W 076°35'1 2.4
2017-Nov-16 13:30N 39°17' W 076°36'0 0.2
2017-Nov-16 13:00N 39°16' W 076°36'3 6.6
2017-Nov-16 12:30N 39°14' W 076°33'611.3
2017-Nov-16 12:00N 39°11' W 076°27'611.6
2017-Nov-16 11:30N 39°09' W 076°20'511.0
2017-Nov-16 11:00N 39°13' W 076°15'610.7
2017-Nov-16 10:29N 39°18' W 076°13'510.9
2017-Nov-16 10:00N 39°22' W 076°08'611.4
2017-Nov-16 09:30N 39°25' W 076°02'611.5
2017-Nov-16 09:00N 39°29' W 075°57'611.4
2017-Nov-16 08:30N 39°32' W 075°50'611.1
2017-Nov-16 08:00N 39°33' W 075°43'612.2
2017-Nov-16 07:30N 39°33' W 075°36'510.3
2017-Nov-16 07:01N 39°38' W 075°34'713.6
2017-Nov-16 06:30N 39°45' W 075°30'713.2
2017-Nov-16 06:01N 39°49' W 075°24'611.5
2017-Nov-16 05:30N 39°51' W 075°17'5 9.2
2017-Nov-16 05:01N 39°54' W 075°12'0 0.6
2017-Nov-16 04:30N 39°53' W 075°12'2 3.4
2017-Nov-16 04:01N 39°52' W 075°13'0 0.0
2017-Nov-16 03:30N 39°52' W 075°13'0 0.0
2017-Nov-16 03:00N 39°52' W 075°13'0 0.2
2017-Nov-16 02:31N 39°52' W 075°13'1 2.7
2017-Nov-16 02:01N 39°51' W 075°14'2 3.9
2017-Nov-16 01:30N 39°52' W 075°12'1 2.8
2017-Nov-16 01:00N 39°54' W 075°12'0 0.0
2017-Nov-16 00:30N 39°54' W 075°12'0 0.0
2017-Nov-16 00:00N 39°54' W 075°12'0 0.0
2017-Nov-15 23:30N 39°54' W 075°12'0 0.0
2017-Nov-15 23:00N 39°54' W 075°12'0 0.0
2017-Nov-15 22:30N 39°54' W 075°12'0 0.0
2017-Nov-15 22:01N 39°54' W 075°12'0 0.0
2017-Nov-15 21:30N 39°54' W 075°12'0 0.0
2017-Nov-15 21:01N 39°54' W 075°12'0 0.0
2017-Nov-15 20:31N 39°54' W 075°12'0 0.0
2017-Nov-15 20:00N 39°54' W 075°12'0 0.0
2017-Nov-15 19:30N 39°54' W 075°12'0 0.0
2017-Nov-15 19:00N 39°54' W 075°12'0 0.0
2017-Nov-15 18:30N 39°54' W 075°12'0 0.0
2017-Nov-15 18:00N 39°54' W 075°12'0 0.0
2017-Nov-15 17:30N 39°54' W 075°12'0 0.7
2017-Nov-15 17:01N 39°53' W 075°12'3 6.2
2017-Nov-15 16:31N 39°54' W 075°08'4 7.9
2017-Nov-15 16:00N 39°58' W 075°07'4 8.4
2017-Nov-15 15:31N 40°01' W 075°02'4 7.7
2017-Nov-15 15:00N 40°03' W 074°58'4 7.5
2017-Nov-15 14:30N 40°05' W 074°54'4 7.7
2017-Nov-15 14:00N 40°07' W 074°50'3 6.7
2017-Nov-15 13:30N 40°08' W 074°46'1 1.0
2017-Nov-15 12:59N 40°08' W 074°45'1 1.7
2017-Nov-15 12:30N 40°08' W 074°46'3 6.5
2017-Nov-15 12:00N 40°07' W 074°50'4 8.4
2017-Nov-15 11:30N 40°04' W 074°54'5 9.5
2017-Nov-15 11:00N 40°02' W 074°60'510.1
2017-Nov-15 10:30N 39°59' W 075°05'5 9.0
2017-Nov-15 10:00N 39°55' W 075°08'3 6.5
2017-Nov-15 09:30N 39°54' W 075°12'0 0.1
2017-Nov-15 09:00N 39°54' W 075°12'0 0.0
2017-Nov-15 08:30N 39°54' W 075°12'0 0.0
2017-Nov-15 08:01N 39°54' W 075°12'0 0.0
2017-Nov-15 07:31N 39°54' W 075°12'0 0.0
2017-Nov-15 07:01N 39°54' W 075°12'0 0.0
2017-Nov-15 06:30N 39°54' W 075°12'0 0.0
2017-Nov-15 06:01N 39°54' W 075°12'0 0.0
2017-Nov-15 05:31N 39°54' W 075°12'0 0.0
2017-Nov-15 05:00N 39°54' W 075°12'0 0.0
2017-Nov-15 04:30N 39°54' W 075°12'0 0.0
2017-Nov-15 04:01N 39°54' W 075°12'0 0.0
2017-Nov-15 03:30N 39°54' W 075°12'0 0.0
2017-Nov-15 03:01N 39°54' W 075°12'0 0.0
2017-Nov-15 02:30N 39°54' W 075°12'0 0.0
2017-Nov-15 02:01N 39°54' W 075°12'0 0.0
2017-Nov-15 01:31N 39°54' W 075°12'0 0.0
2017-Nov-15 01:01N 39°54' W 075°12'0 0.0
2017-Nov-15 00:30N 39°54' W 075°12'0 0.0
2017-Nov-15 00:00N 39°54' W 075°12'0 0.0
2017-Nov-14 23:30N 39°54' W 075°12'0 0.0
2017-Nov-14 23:01N 39°54' W 075°12'0 0.0
2017-Nov-14 22:30N 39°54' W 075°12'0 0.0
2017-Nov-14 22:01N 39°54' W 075°12'0 0.0
2017-Nov-14 21:31N 39°54' W 075°12'0 0.0
2017-Nov-14 21:00N 39°54' W 075°12'0 0.0
2017-Nov-14 20:30N 39°54' W 075°12'0 0.0
2017-Nov-14 20:00N 39°54' W 075°12'0 0.0
2017-Nov-14 19:30N 39°54' W 075°12'0 0.0
2017-Nov-14 19:00N 39°54' W 075°12'0 0.0
2017-Nov-14 18:30N 39°54' W 075°12'0 0.0
2017-Nov-14 18:01N 39°54' W 075°12'0 0.0
2017-Nov-14 17:31N 39°54' W 075°12'0 0.0
2017-Nov-14 17:01N 39°54' W 075°12'0 0.0
2017-Nov-14 16:30N 39°54' W 075°12'0 0.0
2017-Nov-14 16:00N 39°54' W 075°12'0 0.0
2017-Nov-14 15:31N 39°54' W 075°12'0 0.0
2017-Nov-14 15:01N 39°54' W 075°12'0 0.0
2017-Nov-14 14:31N 39°54' W 075°12'0 0.0
2017-Nov-14 14:00N 39°54' W 075°12'0 0.1
2017-Nov-14 13:30N 39°54' W 075°12'3 5.9
2017-Nov-14 13:00N 39°54' W 075°08'4 7.3
2017-Nov-14 12:30N 39°58' W 075°08'1 2.2
2017-Nov-14 12:00N 39°58' W 075°07'1 1.5
2017-Nov-14 11:30N 39°59' W 075°06'0 0.0
2017-Nov-14 11:00N 39°59' W 075°06'1 1.4
2017-Nov-14 10:30N 39°58' W 075°06'3 6.3
2017-Nov-14 10:00N 39°55' W 075°08'1 2.1
2017-Nov-14 09:30N 39°54' W 075°08'2 4.2
2017-Nov-14 09:00N 39°53' W 075°10'2 3.8
2017-Nov-14 08:30N 39°54' W 075°08'2 4.7
2017-Nov-14 08:00N 39°53' W 075°10'2 3.1
2017-Nov-14 07:30N 39°54' W 075°12'0 0.0
2017-Nov-14 07:00N 39°54' W 075°12'0 0.0
2017-Nov-14 06:30N 39°54' W 075°12'0 0.0
2017-Nov-14 06:00N 39°54' W 075°12'0 0.0
2017-Nov-14 05:30N 39°54' W 075°12'0 0.0
2017-Nov-14 05:00N 39°54' W 075°12'0 0.0
2017-Nov-14 04:30N 39°54' W 075°12'0 0.0
2017-Nov-14 04:00N 39°54' W 075°12'0 0.0
2017-Nov-14 03:30N 39°54' W 075°12'0 0.0
2017-Nov-14 03:00N 39°54' W 075°12'0 0.0
2017-Nov-14 02:30N 39°54' W 075°12'0 0.0
2017-Nov-14 02:00N 39°54' W 075°12'3 5.8
2017-Nov-14 01:30N 39°51' W 075°14'1 2.2
2017-Nov-14 01:01N 39°51' W 075°15'612.4
2017-Nov-14 00:30N 39°49' W 075°23'2 3.3
2017-Nov-14 00:01N 39°48' W 075°25'0 0.0
2017-Nov-13 23:30N 39°48' W 075°25'0 0.9
2017-Nov-13 23:01N 39°49' W 075°25'4 7.6
2017-Nov-13 22:31N 39°51' W 075°20'4 8.0
2017-Nov-13 22:01N 39°51' W 075°15'4 0.2
2017-Nov-13 02:00N 39°54' W 075°12'0 0.0
2017-Nov-13 01:30N 39°54' W 075°12'0 0.0
2017-Nov-13 01:01N 39°54' W 075°12'0 0.0
2017-Nov-13 00:30N 39°54' W 075°12'0 0.0
2017-Nov-13 00:00N 39°54' W 075°12'0 0.0
2017-Nov-12 23:31N 39°54' W 075°12'0 0.0
2017-Nov-12 23:01N 39°54' W 075°12'0 0.0
2017-Nov-12 22:31N 39°54' W 075°12'0 0.0
2017-Nov-12 22:01N 39°54' W 075°12'0 0.0
2017-Nov-12 21:30N 39°54' W 075°12'0 0.0
2017-Nov-12 21:00N 39°54' W 075°12'0 0.0
2017-Nov-12 20:30N 39°54' W 075°12'0 0.0
2017-Nov-12 20:01N 39°54' W 075°12'0 0.0
2017-Nov-12 19:30N 39°54' W 075°12'0 0.0
2017-Nov-12 19:00N 39°54' W 075°12'0 0.0
2017-Nov-12 18:30N 39°54' W 075°12'0 0.0
2017-Nov-12 18:00N 39°54' W 075°12'0 0.0
2017-Nov-12 17:31N 39°54' W 075°12'0 0.0
2017-Nov-12 17:01N 39°54' W 075°12'0 0.0
2017-Nov-12 16:31N 39°54' W 075°12'0 0.0
2017-Nov-12 16:00N 39°54' W 075°12'0 0.0
2017-Nov-12 15:31N 39°54' W 075°12'0 0.0
2017-Nov-12 15:01N 39°54' W 075°12'0 0.0
2017-Nov-12 14:30N 39°54' W 075°12'0 0.0
2017-Nov-12 14:00N 39°54' W 075°12'0 0.0
2017-Nov-12 13:30N 39°54' W 075°12'0 0.0
2017-Nov-12 13:00N 39°54' W 075°12'0 0.7
2017-Nov-12 12:30N 39°54' W 075°12'0 0.5
2017-Nov-12 12:00N 39°54' W 075°12'1 1.4
2017-Nov-12 11:31N 39°53' W 075°12'1 1.7
2017-Nov-12 11:00N 39°54' W 075°12'0 0.7
2017-Nov-12 10:30N 39°54' W 075°12'0 0.0
2017-Nov-12 10:00N 39°54' W 075°12'1 1.6
2017-Nov-12 09:30N 39°53' W 075°12'4 8.6
2017-Nov-12 09:00N 39°51' W 075°17'4 8.6
2017-Nov-12 08:31N 39°50' W 075°22'3 5.5
2017-Nov-12 08:01N 39°48' W 075°25'0 0.0
2017-Nov-12 07:30N 39°48' W 075°25'0 0.0
2017-Nov-12 07:00N 39°48' W 075°25'0 0.3
2017-Nov-12 06:31N 39°48' W 075°25'1 2.9
2017-Nov-12 06:01N 39°48' W 075°27'1 1.9
2017-Nov-12 05:31N 39°48' W 075°26'2 4.5
2017-Nov-12 05:01N 39°49' W 075°23'4 7.2
2017-Nov-12 04:31N 39°51' W 075°19'4 7.1
2017-Nov-12 04:01N 39°51' W 075°15'3 6.5
2017-Nov-12 03:31N 39°54' W 075°12'0 0.1
2017-Nov-12 03:00N 39°54' W 075°12'0 0.0
2017-Nov-12 02:30N 39°54' W 075°12'0 0.0
2017-Nov-12 02:01N 39°54' W 075°12'0 0.0
2017-Nov-12 01:31N 39°54' W 075°12'0 0.0
2017-Nov-12 01:00N 39°54' W 075°12'0 0.0
2017-Nov-12 00:31N 39°54' W 075°12'0 0.0
2017-Nov-12 00:00N 39°54' W 075°12'0 0.0
2017-Nov-11 23:30N 39°54' W 075°12'0 0.0
2017-Nov-11 23:01N 39°54' W 075°12'0 0.0
2017-Nov-11 22:30N 39°54' W 075°12'0 0.0
2017-Nov-11 22:00N 39°54' W 075°12'0 0.0
2017-Nov-11 21:31N 39°54' W 075°12'0 0.0
2017-Nov-11 21:01N 39°54' W 075°12'0 0.0
2017-Nov-11 20:31N 39°54' W 075°12'0 0.0
2017-Nov-11 20:00N 39°54' W 075°12'0 0.0
2017-Nov-11 19:31N 39°54' W 075°12'0 0.0
2017-Nov-11 19:00N 39°54' W 075°12'0 0.6
2017-Nov-11 18:30N 39°54' W 075°12'0 0.4
2017-Nov-11 18:00N 39°53' W 075°12'4 7.9
2017-Nov-11 17:31N 39°51' W 075°16'4 8.9
2017-Nov-11 17:00N 39°50' W 075°21'4 8.2
2017-Nov-11 16:30N 39°48' W 075°26'4 8.1
2017-Nov-11 16:01N 39°45' W 075°29'4 8.4
2017-Nov-11 15:30N 39°41' W 075°31'4 8.1
2017-Nov-11 15:01N 39°38' W 075°35'4 7.5
2017-Nov-11 14:31N 39°34' W 075°33'2 4.1
2017-Nov-11 14:01N 39°35' W 075°36'0 0.9
2017-Nov-11 13:31N 39°35' W 075°35'0 0.8
2017-Nov-11 13:01N 39°35' W 075°36'0 0.0
2017-Nov-11 12:30N 39°35' W 075°36'0 0.0
2017-Nov-11 12:00N 39°35' W 075°36'0 0.0
2017-Nov-11 11:31N 39°35' W 075°36'0 0.0
2017-Nov-11 11:01N 39°35' W 075°36'0 0.0
2017-Nov-11 10:31N 39°35' W 075°36'1 1.8
2017-Nov-11 10:01N 39°35' W 075°35'0 1.0
2017-Nov-11 09:30N 39°34' W 075°34'1 2.5
2017-Nov-11 09:00N 39°35' W 075°36'0 0.2
2017-Nov-11 08:31N 39°35' W 075°36'0 0.1
2017-Nov-11 08:00N 39°35' W 075°36'3 5.2
2017-Nov-11 07:31N 39°34' W 075°33'4 8.6
2017-Nov-11 07:01N 39°33' W 075°39'611.1
2017-Nov-11 06:30N 39°32' W 075°46'510.0
2017-Nov-11 06:00N 39°32' W 075°52'510.4
2017-Nov-11 05:31N 39°29' W 075°57'5 9.9
2017-Nov-11 05:01N 39°25' W 076°02'5 9.3
2017-Nov-11 04:30N 39°23' W 076°07'5 9.6
2017-Nov-11 04:00N 39°20' W 076°12'13 7.7
2017-Nov-11 02:19N 39°10' W 076°23'3 8.7
2017-Nov-11 02:00N 39°11' W 076°26'4 8.3
2017-Nov-11 01:30N 39°12' W 076°31'3 5.5
2017-Nov-11 01:00N 39°13' W 076°34'0 0.0
2017-Nov-11 00:30N 39°13' W 076°34'0 0.0
2017-Nov-11 00:00N 39°13' W 076°34'0 0.0
2017-Nov-10 23:30N 39°13' W 076°34'0 0.0
2017-Nov-10 23:00N 39°13' W 076°34'0 0.0
2017-Nov-10 22:30N 39°13' W 076°34'0 0.0
2017-Nov-10 22:00N 39°13' W 076°34'0 0.0
2017-Nov-10 21:30N 39°13' W 076°34'0 0.0
2017-Nov-10 21:00N 39°13' W 076°34'0 0.0
2017-Nov-10 20:30N 39°13' W 076°34'0 0.0
2017-Nov-10 20:01N 39°13' W 076°34'0 0.0
2017-Nov-10 19:30N 39°13' W 076°34'0 0.0
2017-Nov-10 19:00N 39°13' W 076°34'0 0.0
2017-Nov-10 18:30N 39°13' W 076°34'0 0.0
2017-Nov-10 18:01N 39°13' W 076°34'0 0.0
2017-Nov-10 17:30N 39°13' W 076°34'0 0.0
2017-Nov-10 17:00N 39°13' W 076°34'0 0.0
2017-Nov-10 16:30N 39°13' W 076°34'0 0.0
2017-Nov-10 16:00N 39°13' W 076°34'0 0.0
2017-Nov-10 15:30N 39°13' W 076°34'0 0.0
2017-Nov-10 15:00N 39°13' W 076°34'0 0.0
2017-Nov-10 14:25N 39°13' W 076°34'0 0.0
2017-Nov-10 13:57N 39°13' W 076°34'0 0.0
2017-Nov-10 13:27N 39°13' W 076°34'0 0.0
2017-Nov-10 13:00N 39°13' W 076°34'0 0.0
2017-Nov-10 12:31N 39°13' W 076°34'0 0.0
2017-Nov-10 12:01N 39°13' W 076°34'0 0.0
2017-Nov-10 11:30N 39°13' W 076°34'0 0.0
2017-Nov-10 11:00N 39°13' W 076°34'0 0.0
2017-Nov-10 10:31N 39°13' W 076°34'0 0.0
2017-Nov-10 10:01N 39°13' W 076°34'0 0.2
2017-Nov-10 09:30N 39°13' W 076°35'1 1.4
2017-Nov-10 09:01N 39°13' W 076°34'4 7.5
2017-Nov-10 08:25N 39°11' W 076°29'3 6.9
2017-Nov-10 07:59N 39°10' W 076°25'3 6.9
2017-Nov-10 07:30N 39°09' W 076°21'3 6.1
2017-Nov-10 07:00N 39°11' W 076°18'4 7.3
2017-Nov-10 06:31N 39°13' W 076°15'3 6.8
2017-Nov-10 06:00N 39°17' W 076°14'3 6.2
2017-Nov-10 05:31N 39°20' W 076°12'3 6.0
2017-Nov-10 05:01N 39°21' W 076°09'3 5.9
2017-Nov-10 04:30N 39°23' W 076°06'3 6.0
2017-Nov-10 04:01N 39°24' W 076°02'3 6.0
2017-Nov-10 03:31N 39°27' W 075°60'3 5.8
2017-Nov-10 03:01N 39°29' W 075°57'3 5.9
2017-Nov-10 02:31N 39°31' W 075°54'3 6.0
2017-Nov-10 02:01N 39°32' W 075°51'3 6.5
2017-Nov-10 01:31N 39°32' W 075°47'4 8.0
2017-Nov-10 01:01N 39°33' W 075°41'4 8.4
2017-Nov-10 00:30N 39°33' W 075°36'3 5.3
2017-Nov-10 00:01N 39°35' W 075°34'4 7.5
2017-Nov-09 23:30N 39°39' W 075°33'4 8.0
2017-Nov-09 23:01N 39°42' W 075°31'3 6.2
2017-Nov-09 22:31N 39°45' W 075°29'4 7.7
2017-Nov-09 22:01N 39°48' W 075°26'3 6.3
2017-Nov-09 21:30N 39°50' W 075°22'1 1.0
2017-Nov-09 21:01N 39°50' W 075°22'4 7.7
2017-Nov-09 20:30N 39°51' W 075°17'4 7.3
2017-Nov-09 20:00N 39°52' W 075°13'1 2.9
2017-Nov-09 19:30N 39°54' W 075°12'0 0.0
2017-Nov-09 19:00N 39°54' W 075°12'0 0.0
2017-Nov-09 18:30N 39°54' W 075°12'0 0.0
2017-Nov-09 18:00N 39°54' W 075°12'0 0.0
2017-Nov-09 17:30N 39°54' W 075°12'0 0.0
2017-Nov-09 17:00N 39°54' W 075°12'0 0.0
2017-Nov-09 16:30N 39°54' W 075°12'0 0.0
2017-Nov-09 16:00N 39°54' W 075°12'0 0.0
2017-Nov-09 15:30N 39°54' W 075°12'0 0.0
2017-Nov-09 15:00N 39°54' W 075°12'0 0.0
2017-Nov-09 14:30N 39°54' W 075°12'0 0.0
2017-Nov-09 14:00N 39°54' W 075°12'2 4.0
2017-Nov-09 13:31N 39°52' W 075°13'4 7.8
2017-Nov-09 13:00N 39°51' W 075°18'4 8.3
2017-Nov-09 12:30N 39°49' W 075°23'4 8.0
2017-Nov-09 12:01N 39°47' W 075°27'4 7.6
2017-Nov-09 11:31N 39°44' W 075°30'4 7.7
2017-Nov-09 11:00N 39°40' W 075°32'4 9.0
2017-Nov-09 10:31N 39°36' W 075°34'2 3.1
2017-Nov-09 10:01N 39°35' W 075°35'0 0.9
2017-Nov-09 09:31N 39°35' W 075°36'1 2.9
2017-Nov-09 09:01N 39°34' W 075°34'2 3.0
2017-Nov-09 08:31N 39°33' W 075°33'1 2.6
2017-Nov-09 08:01N 39°35' W 075°33'4 8.2
2017-Nov-09 07:31N 39°39' W 075°34'4 8.3
2017-Nov-09 07:01N 39°42' W 075°31'4 8.6
2017-Nov-09 06:31N 39°46' W 075°28'4 8.6
2017-Nov-09 06:01N 39°49' W 075°24'4 8.7
2017-Nov-09 05:30N 39°51' W 075°19'4 8.9
2017-Nov-09 05:01N 39°52' W 075°14'2 4.7
2017-Nov-09 04:30N 39°54' W 075°12'0 0.0
2017-Nov-09 04:01N 39°54' W 075°12'0 0.0
2017-Nov-09 03:30N 39°54' W 075°12'0 0.0
2017-Nov-09 03:01N 39°54' W 075°12'0 0.0
2017-Nov-09 02:30N 39°54' W 075°12'0 0.0
2017-Nov-09 02:01N 39°54' W 075°12'1 2.7
2017-Nov-09 01:30N 39°52' W 075°12'3 5.1
2017-Nov-09 01:00N 39°51' W 075°15'0 0.0
2017-Nov-09 00:31N 39°51' W 075°15'1 2.3
2017-Nov-09 00:01N 39°52' W 075°14'4 7.0
2017-Nov-08 23:30N 39°53' W 075°09'1 2.4
2017-Nov-08 23:01N 39°54' W 075°08'1 1.2
2017-Nov-08 22:31N 39°54' W 075°08'0 0.1
2017-Nov-08 22:01N 39°54' W 075°08'1 1.4
2017-Nov-08 21:31N 39°54' W 075°09'0 0.0
2017-Nov-08 21:00N 39°54' W 075°08'0 0.0
2017-Nov-08 20:30N 39°54' W 075°09'0 0.0
2017-Nov-08 20:01N 39°54' W 075°08'0 0.0
2017-Nov-08 19:30N 39°54' W 075°08'0 0.0
2017-Nov-08 19:01N 39°54' W 075°08'0 0.3
2017-Nov-08 18:31N 39°54' W 075°08'0 0.0
2017-Nov-08 18:01N 39°54' W 075°08'2 3.9
2017-Nov-08 17:31N 39°53' W 075°11'1 2.6
2017-Nov-08 17:00N 39°54' W 075°12'0 0.0
2017-Nov-08 16:30N 39°54' W 075°12'0 0.0
2017-Nov-08 16:00N 39°54' W 075°12'0 0.0
2017-Nov-08 15:30N 39°54' W 075°12'0 0.0
2017-Nov-08 15:01N 39°54' W 075°12'0 0.0
2017-Nov-08 14:31N 39°54' W 075°12'0 0.0
2017-Nov-08 14:01N 39°54' W 075°12'0 0.0
2017-Nov-08 13:30N 39°54' W 075°12'0 0.0
2017-Nov-08 13:01N 39°54' W 075°12'0 0.0
2017-Nov-08 12:30N 39°54' W 075°12'0 0.0
2017-Nov-08 12:01N 39°54' W 075°12'  

Dump ship's entire track history